sensor_id;sensor_type;location;lat;lon;timestamp;P1;durP1;ratioP1;P2;durP2;ratioP2
25950;SDS011;13748;52.240;6.002;2022-11-13T00:00:53;36.47;;;24.47;;
25950;SDS011;13748;52.240;6.002;2022-11-13T00:03:20;37.53;;;24.37;;
25950;SDS011;13748;52.240;6.002;2022-11-13T00:05:48;42.37;;;25.93;;
25950;SDS011;13748;52.240;6.002;2022-11-13T00:08:27;39.27;;;24.63;;
25950;SDS011;13748;52.240;6.002;2022-11-13T00:11:06;43.13;;;25.77;;
25950;SDS011;13748;52.240;6.002;2022-11-13T00:13:38;37.17;;;24.43;;
25950;SDS011;13748;52.240;6.002;2022-11-13T00:16:06;38.60;;;25.83;;
25950;SDS011;13748;52.240;6.002;2022-11-13T00:18:36;40.63;;;26.30;;
25950;SDS011;13748;52.240;6.002;2022-11-13T00:21:03;38.67;;;24.83;;
25950;SDS011;13748;52.240;6.002;2022-11-13T00:23:36;36.83;;;24.60;;
25950;SDS011;13748;52.240;6.002;2022-11-13T00:26:05;36.30;;;24.50;;
25950;SDS011;13748;52.240;6.002;2022-11-13T00:28:36;37.77;;;24.20;;
25950;SDS011;13748;52.240;6.002;2022-11-13T00:31:04;36.50;;;23.07;;
25950;SDS011;13748;52.240;6.002;2022-11-13T00:33:32;41.60;;;24.53;;
25950;SDS011;13748;52.240;6.002;2022-11-13T00:36:23;39.73;;;25.17;;
25950;SDS011;13748;52.240;6.002;2022-11-13T00:38:52;46.27;;;26.10;;
25950;SDS011;13748;52.240;6.002;2022-11-13T00:41:19;40.77;;;26.43;;
25950;SDS011;13748;52.240;6.002;2022-11-13T00:43:47;40.93;;;25.23;;
25950;SDS011;13748;52.240;6.002;2022-11-13T00:46:14;41.23;;;25.57;;
25950;SDS011;13748;52.240;6.002;2022-11-13T00:48:41;40.30;;;24.53;;
25950;SDS011;13748;52.240;6.002;2022-11-13T00:51:08;39.40;;;23.80;;
25950;SDS011;13748;52.240;6.002;2022-11-13T00:53:35;42.50;;;24.70;;
25950;SDS011;13748;52.240;6.002;2022-11-13T00:56:02;44.63;;;25.33;;
25950;SDS011;13748;52.240;6.002;2022-11-13T00:58:29;38.70;;;23.97;;
25950;SDS011;13748;52.240;6.002;2022-11-13T01:01:02;36.83;;;23.63;;
25950;SDS011;13748;52.240;6.002;2022-11-13T01:03:31;40.63;;;22.77;;
25950;SDS011;13748;52.240;6.002;2022-11-13T01:05:58;35.70;;;22.57;;
25950;SDS011;13748;52.240;6.002;2022-11-13T01:08:25;42.43;;;23.13;;
25950;SDS011;13748;52.240;6.002;2022-11-13T01:10:52;34.87;;;21.97;;
25950;SDS011;13748;52.240;6.002;2022-11-13T01:13:19;36.70;;;22.67;;
25950;SDS011;13748;52.240;6.002;2022-11-13T01:15:46;35.90;;;23.13;;
25950;SDS011;13748;52.240;6.002;2022-11-13T01:18:13;39.83;;;23.40;;
25950;SDS011;13748;52.240;6.002;2022-11-13T01:20:40;40.77;;;21.70;;
25950;SDS011;13748;52.240;6.002;2022-11-13T01:23:07;41.53;;;23.33;;
25950;SDS011;13748;52.240;6.002;2022-11-13T01:25:34;38.80;;;23.93;;
25950;SDS011;13748;52.240;6.002;2022-11-13T01:28:00;40.37;;;23.67;;
25950;SDS011;13748;52.240;6.002;2022-11-13T01:30:27;45.73;;;26.47;;
25950;SDS011;13748;52.240;6.002;2022-11-13T01:32:54;46.73;;;26.70;;
25950;SDS011;13748;52.240;6.002;2022-11-13T01:35:21;51.93;;;28.03;;
25950;SDS011;13748;52.240;6.002;2022-11-13T01:37:47;46.10;;;28.03;;
25950;SDS011;13748;52.240;6.002;2022-11-13T01:40:14;54.80;;;27.97;;
25950;SDS011;13748;52.240;6.002;2022-11-13T01:42:41;45.03;;;26.17;;
25950;SDS011;13748;52.240;6.002;2022-11-13T01:48:12;46.63;;;27.47;;
25950;SDS011;13748;52.240;6.002;2022-11-13T01:50:40;48.10;;;29.40;;
25950;SDS011;13748;52.240;6.002;2022-11-13T01:53:06;51.07;;;28.07;;
25950;SDS011;13748;52.240;6.002;2022-11-13T01:55:34;43.77;;;25.77;;
25950;SDS011;13748;52.240;6.002;2022-11-13T01:58:01;50.60;;;27.17;;
25950;SDS011;13748;52.240;6.002;2022-11-13T02:00:30;44.17;;;26.70;;
25950;SDS011;13748;52.240;6.002;2022-11-13T02:02:57;52.23;;;29.67;;
25950;SDS011;13748;52.240;6.002;2022-11-13T02:05:23;53.83;;;28.70;;
25950;SDS011;13748;52.240;6.002;2022-11-13T02:07:51;46.50;;;27.50;;
25950;SDS011;13748;52.240;6.002;2022-11-13T02:10:18;49.60;;;27.13;;
25950;SDS011;13748;52.240;6.002;2022-11-13T02:12:46;44.57;;;26.50;;
25950;SDS011;13748;52.240;6.002;2022-11-13T02:15:16;44.70;;;26.10;;
25950;SDS011;13748;52.240;6.002;2022-11-13T02:17:51;38.20;;;25.20;;
25950;SDS011;13748;52.240;6.002;2022-11-13T02:20:44;43.90;;;27.30;;
25950;SDS011;13748;52.240;6.002;2022-11-13T02:26:01;44.57;;;25.93;;
25950;SDS011;13748;52.240;6.002;2022-11-13T02:28:29;45.67;;;27.07;;
25950;SDS011;13748;52.240;6.002;2022-11-13T02:30:57;46.13;;;27.63;;
25950;SDS011;13748;52.240;6.002;2022-11-13T02:33:34;46.63;;;27.50;;
25950;SDS011;13748;52.240;6.002;2022-11-13T02:36:02;50.67;;;27.63;;
25950;SDS011;13748;52.240;6.002;2022-11-13T02:38:32;46.77;;;27.10;;
25950;SDS011;13748;52.240;6.002;2022-11-13T02:41:00;43.17;;;24.00;;
25950;SDS011;13748;52.240;6.002;2022-11-13T02:43:27;44.33;;;25.50;;
25950;SDS011;13748;52.240;6.002;2022-11-13T02:45:54;44.33;;;25.03;;
25950;SDS011;13748;52.240;6.002;2022-11-13T02:48:20;42.30;;;23.90;;
25950;SDS011;13748;52.240;6.002;2022-11-13T02:50:50;43.17;;;24.37;;
25950;SDS011;13748;52.240;6.002;2022-11-13T02:53:17;42.93;;;25.63;;
25950;SDS011;13748;52.240;6.002;2022-11-13T02:55:44;40.17;;;25.00;;
25950;SDS011;13748;52.240;6.002;2022-11-13T02:58:11;38.77;;;23.77;;
25950;SDS011;13748;52.240;6.002;2022-11-13T03:00:37;38.13;;;24.30;;
25950;SDS011;13748;52.240;6.002;2022-11-13T03:03:04;39.40;;;25.83;;
25950;SDS011;13748;52.240;6.002;2022-11-13T03:05:31;42.93;;;27.40;;
25950;SDS011;13748;52.240;6.002;2022-11-13T03:08:00;44.60;;;26.40;;
25950;SDS011;13748;52.240;6.002;2022-11-13T03:10:27;41.40;;;25.13;;
25950;SDS011;13748;52.240;6.002;2022-11-13T03:12:54;40.67;;;23.93;;
25950;SDS011;13748;52.240;6.002;2022-11-13T03:15:21;41.37;;;24.57;;
25950;SDS011;13748;52.240;6.002;2022-11-13T03:17:50;39.57;;;24.37;;
25950;SDS011;13748;52.240;6.002;2022-11-13T03:20:17;44.83;;;26.80;;
25950;SDS011;13748;52.240;6.002;2022-11-13T03:22:43;38.40;;;24.47;;
25950;SDS011;13748;52.240;6.002;2022-11-13T03:25:11;40.93;;;23.93;;
25950;SDS011;13748;52.240;6.002;2022-11-13T03:27:45;38.00;;;23.63;;
25950;SDS011;13748;52.240;6.002;2022-11-13T03:30:12;37.87;;;22.87;;
25950;SDS011;13748;52.240;6.002;2022-11-13T03:32:39;44.13;;;24.53;;
25950;SDS011;13748;52.240;6.002;2022-11-13T03:35:06;42.10;;;24.40;;
25950;SDS011;13748;52.240;6.002;2022-11-13T03:37:34;40.63;;;23.67;;
25950;SDS011;13748;52.240;6.002;2022-11-13T03:40:00;43.70;;;24.60;;
25950;SDS011;13748;52.240;6.002;2022-11-13T03:42:27;40.33;;;24.07;;
25950;SDS011;13748;52.240;6.002;2022-11-13T03:44:54;44.57;;;24.43;;
25950;SDS011;13748;52.240;6.002;2022-11-13T03:47:21;38.10;;;22.60;;
25950;SDS011;13748;52.240;6.002;2022-11-13T03:49:48;45.33;;;24.43;;
25950;SDS011;13748;52.240;6.002;2022-11-13T03:52:20;38.23;;;23.17;;
25950;SDS011;13748;52.240;6.002;2022-11-13T03:54:46;40.63;;;22.53;;
25950;SDS011;13748;52.240;6.002;2022-11-13T03:57:13;39.13;;;22.70;;
25950;SDS011;13748;52.240;6.002;2022-11-13T03:59:40;39.77;;;22.07;;
25950;SDS011;13748;52.240;6.002;2022-11-13T04:02:07;41.07;;;22.80;;
25950;SDS011;13748;52.240;6.002;2022-11-13T04:04:34;40.43;;;22.80;;
25950;SDS011;13748;52.240;6.002;2022-11-13T04:07:00;41.70;;;22.50;;
25950;SDS011;13748;52.240;6.002;2022-11-13T04:09:28;44.97;;;23.97;;
25950;SDS011;13748;52.240;6.002;2022-11-13T04:11:55;42.97;;;23.33;;
25950;SDS011;13748;52.240;6.002;2022-11-13T04:14:21;40.50;;;22.73;;
25950;SDS011;13748;52.240;6.002;2022-11-13T04:16:48;43.50;;;23.17;;
25950;SDS011;13748;52.240;6.002;2022-11-13T04:19:15;41.00;;;23.30;;
25950;SDS011;13748;52.240;6.002;2022-11-13T04:21:41;41.40;;;22.70;;
25950;SDS011;13748;52.240;6.002;2022-11-13T04:24:08;42.80;;;23.90;;
25950;SDS011;13748;52.240;6.002;2022-11-13T04:26:35;38.80;;;22.80;;
25950;SDS011;13748;52.240;6.002;2022-11-13T04:29:01;52.00;;;24.80;;
25950;SDS011;13748;52.240;6.002;2022-11-13T04:31:28;60.13;;;29.37;;
25950;SDS011;13748;52.240;6.002;2022-11-13T04:33:55;63.07;;;33.13;;
25950;SDS011;13748;52.240;6.002;2022-11-13T04:36:22;117.83;;;37.00;;
25950;SDS011;13748;52.240;6.002;2022-11-13T04:38:48;156.20;;;40.10;;
25950;SDS011;13748;52.240;6.002;2022-11-13T04:41:15;121.50;;;37.70;;
25950;SDS011;13748;52.240;6.002;2022-11-13T04:44:01;109.10;;;38.10;;
25950;SDS011;13748;52.240;6.002;2022-11-13T04:46:28;108.37;;;37.57;;
25950;SDS011;13748;52.240;6.002;2022-11-13T04:48:54;99.70;;;37.00;;
25950;SDS011;13748;52.240;6.002;2022-11-13T04:51:21;79.83;;;34.87;;
25950;SDS011;13748;52.240;6.002;2022-11-13T04:53:48;80.93;;;32.93;;
25950;SDS011;13748;52.240;6.002;2022-11-13T04:56:15;75.90;;;30.80;;
25950;SDS011;13748;52.240;6.002;2022-11-13T04:58:42;81.67;;;31.20;;
25950;SDS011;13748;52.240;6.002;2022-11-13T05:01:08;76.53;;;32.03;;
25950;SDS011;13748;52.240;6.002;2022-11-13T05:03:35;70.83;;;30.37;;
25950;SDS011;13748;52.240;6.002;2022-11-13T05:06:03;61.83;;;30.40;;
25950;SDS011;13748;52.240;6.002;2022-11-13T05:08:31;54.13;;;28.93;;
25950;SDS011;13748;52.240;6.002;2022-11-13T05:10:59;51.53;;;29.80;;
25950;SDS011;13748;52.240;6.002;2022-11-13T05:13:29;44.80;;;27.43;;
25950;SDS011;13748;52.240;6.002;2022-11-13T05:16:03;53.33;;;28.40;;
25950;SDS011;13748;52.240;6.002;2022-11-13T05:18:33;45.97;;;28.37;;
25950;SDS011;13748;52.240;6.002;2022-11-13T05:21:00;49.00;;;27.73;;
25950;SDS011;13748;52.240;6.002;2022-11-13T05:23:27;45.47;;;26.93;;
25950;SDS011;13748;52.240;6.002;2022-11-13T05:26:05;47.13;;;28.37;;
25950;SDS011;13748;52.240;6.002;2022-11-13T05:28:33;44.13;;;27.30;;
25950;SDS011;13748;52.240;6.002;2022-11-13T05:31:04;48.10;;;27.77;;
25950;SDS011;13748;52.240;6.002;2022-11-13T05:33:33;46.97;;;27.77;;
25950;SDS011;13748;52.240;6.002;2022-11-13T05:36:02;52.80;;;29.23;;
25950;SDS011;13748;52.240;6.002;2022-11-13T05:38:31;47.03;;;28.17;;
25950;SDS011;13748;52.240;6.002;2022-11-13T05:41:05;48.83;;;29.07;;
25950;SDS011;13748;52.240;6.002;2022-11-13T05:43:35;47.70;;;26.90;;
25950;SDS011;13748;52.240;6.002;2022-11-13T05:46:11;51.87;;;28.93;;
25950;SDS011;13748;52.240;6.002;2022-11-13T05:48:38;54.47;;;27.43;;
25950;SDS011;13748;52.240;6.002;2022-11-13T05:51:07;46.20;;;27.27;;
25950;SDS011;13748;52.240;6.002;2022-11-13T05:53:35;47.17;;;27.77;;
25950;SDS011;13748;52.240;6.002;2022-11-13T05:56:07;41.60;;;25.80;;
25950;SDS011;13748;52.240;6.002;2022-11-13T05:58:41;45.57;;;27.97;;
25950;SDS011;13748;52.240;6.002;2022-11-13T06:01:14;47.67;;;26.03;;
25950;SDS011;13748;52.240;6.002;2022-11-13T06:03:45;49.37;;;27.37;;
25950;SDS011;13748;52.240;6.002;2022-11-13T06:06:14;43.63;;;27.20;;
25950;SDS011;13748;52.240;6.002;2022-11-13T06:08:44;49.63;;;26.70;;
25950;SDS011;13748;52.240;6.002;2022-11-13T06:11:12;46.57;;;27.07;;
25950;SDS011;13748;52.240;6.002;2022-11-13T06:13:44;42.87;;;25.53;;
25950;SDS011;13748;52.240;6.002;2022-11-13T06:16:14;44.13;;;26.87;;
25950;SDS011;13748;52.240;6.002;2022-11-13T06:18:43;46.73;;;26.30;;
25950;SDS011;13748;52.240;6.002;2022-11-13T06:21:11;48.20;;;25.87;;
25950;SDS011;13748;52.240;6.002;2022-11-13T06:23:40;43.67;;;25.00;;
25950;SDS011;13748;52.240;6.002;2022-11-13T06:26:09;45.63;;;26.00;;
25950;SDS011;13748;52.240;6.002;2022-11-13T06:28:47;44.53;;;25.57;;
25950;SDS011;13748;52.240;6.002;2022-11-13T06:31:47;46.80;;;25.67;;
25950;SDS011;13748;52.240;6.002;2022-11-13T06:34:06;42.40;;;26.37;;
25950;SDS011;13748;52.240;6.002;2022-11-13T06:36:34;43.97;;;26.07;;
25950;SDS011;13748;52.240;6.002;2022-11-13T06:39:06;47.33;;;27.13;;
25950;SDS011;13748;52.240;6.002;2022-11-13T06:41:34;41.80;;;26.30;;
25950;SDS011;13748;52.240;6.002;2022-11-13T06:44:02;40.30;;;25.93;;
25950;SDS011;13748;52.240;6.002;2022-11-13T06:46:29;42.47;;;25.83;;
25950;SDS011;13748;52.240;6.002;2022-11-13T06:48:56;41.57;;;25.17;;
25950;SDS011;13748;52.240;6.002;2022-11-13T06:51:24;45.37;;;26.00;;
25950;SDS011;13748;52.240;6.002;2022-11-13T06:53:52;37.37;;;24.67;;
25950;SDS011;13748;52.240;6.002;2022-11-13T06:56:20;46.60;;;27.33;;
25950;SDS011;13748;52.240;6.002;2022-11-13T06:58:49;44.97;;;25.97;;
25950;SDS011;13748;52.240;6.002;2022-11-13T07:01:20;44.43;;;26.50;;
25950;SDS011;13748;52.240;6.002;2022-11-13T07:03:49;37.03;;;24.00;;
25950;SDS011;13748;52.240;6.002;2022-11-13T07:06:20;40.27;;;25.10;;
25950;SDS011;13748;52.240;6.002;2022-11-13T07:08:48;41.30;;;24.60;;
25950;SDS011;13748;52.240;6.002;2022-11-13T07:11:16;37.83;;;23.43;;
25950;SDS011;13748;52.240;6.002;2022-11-13T07:13:44;40.00;;;24.50;;
25950;SDS011;13748;52.240;6.002;2022-11-13T07:16:11;41.90;;;25.37;;
25950;SDS011;13748;52.240;6.002;2022-11-13T07:18:43;39.03;;;25.00;;
25950;SDS011;13748;52.240;6.002;2022-11-13T07:21:17;44.33;;;26.17;;
25950;SDS011;13748;52.240;6.002;2022-11-13T07:23:45;39.30;;;25.00;;
25950;SDS011;13748;52.240;6.002;2022-11-13T07:26:14;42.87;;;25.77;;
25950;SDS011;13748;52.240;6.002;2022-11-13T07:28:41;47.90;;;27.63;;
25950;SDS011;13748;52.240;6.002;2022-11-13T07:31:08;48.20;;;28.50;;
25950;SDS011;13748;52.240;6.002;2022-11-13T07:33:37;49.47;;;31.23;;
25950;SDS011;13748;52.240;6.002;2022-11-13T07:36:03;55.03;;;34.33;;
25950;SDS011;13748;52.240;6.002;2022-11-13T07:38:30;56.20;;;33.00;;
25950;SDS011;13748;52.240;6.002;2022-11-13T07:40:57;52.63;;;35.47;;
25950;SDS011;13748;52.240;6.002;2022-11-13T07:43:25;53.77;;;34.13;;
25950;SDS011;13748;52.240;6.002;2022-11-13T07:45:52;62.53;;;38.30;;
25950;SDS011;13748;52.240;6.002;2022-11-13T07:48:20;61.43;;;39.20;;
25950;SDS011;13748;52.240;6.002;2022-11-13T07:50:48;56.27;;;35.30;;
25950;SDS011;13748;52.240;6.002;2022-11-13T07:53:18;53.93;;;35.97;;
25950;SDS011;13748;52.240;6.002;2022-11-13T07:55:46;52.03;;;34.23;;
25950;SDS011;13748;52.240;6.002;2022-11-13T07:58:13;50.83;;;32.03;;
25950;SDS011;13748;52.240;6.002;2022-11-13T08:00:39;54.97;;;34.67;;
25950;SDS011;13748;52.240;6.002;2022-11-13T08:03:07;57.63;;;35.03;;
25950;SDS011;13748;52.240;6.002;2022-11-13T08:05:38;59.50;;;33.43;;
25950;SDS011;13748;52.240;6.002;2022-11-13T08:08:06;62.60;;;35.40;;
25950;SDS011;13748;52.240;6.002;2022-11-13T08:10:36;58.47;;;33.70;;
25950;SDS011;13748;52.240;6.002;2022-11-13T08:13:04;53.47;;;33.43;;
25950;SDS011;13748;52.240;6.002;2022-11-13T08:15:32;57.20;;;34.50;;
25950;SDS011;13748;52.240;6.002;2022-11-13T08:18:00;56.40;;;33.27;;
25950;SDS011;13748;52.240;6.002;2022-11-13T08:20:28;50.97;;;32.73;;
25950;SDS011;13748;52.240;6.002;2022-11-13T08:22:57;52.30;;;31.73;;
25950;SDS011;13748;52.240;6.002;2022-11-13T08:25:25;55.77;;;32.40;;
25950;SDS011;13748;52.240;6.002;2022-11-13T08:27:52;54.07;;;32.57;;
25950;SDS011;13748;52.240;6.002;2022-11-13T08:30:20;53.57;;;31.13;;
25950;SDS011;13748;52.240;6.002;2022-11-13T08:32:48;52.50;;;31.63;;
25950;SDS011;13748;52.240;6.002;2022-11-13T08:35:15;54.67;;;32.70;;
25950;SDS011;13748;52.240;6.002;2022-11-13T08:37:45;52.87;;;31.60;;
25950;SDS011;13748;52.240;6.002;2022-11-13T08:40:12;56.47;;;32.33;;
25950;SDS011;13748;52.240;6.002;2022-11-13T08:42:39;52.07;;;33.67;;
25950;SDS011;13748;52.240;6.002;2022-11-13T08:45:06;52.87;;;32.10;;
25950;SDS011;13748;52.240;6.002;2022-11-13T08:47:34;56.27;;;35.17;;
25950;SDS011;13748;52.240;6.002;2022-11-13T08:50:01;52.97;;;32.27;;
25950;SDS011;13748;52.240;6.002;2022-11-13T08:52:29;52.57;;;33.50;;
25950;SDS011;13748;52.240;6.002;2022-11-13T08:54:55;60.60;;;36.33;;
25950;SDS011;13748;52.240;6.002;2022-11-13T08:57:22;57.57;;;35.90;;
25950;SDS011;13748;52.240;6.002;2022-11-13T08:59:49;63.73;;;38.17;;
25950;SDS011;13748;52.240;6.002;2022-11-13T09:02:16;63.90;;;38.13;;
25950;SDS011;13748;52.240;6.002;2022-11-13T09:04:42;70.07;;;43.07;;
25950;SDS011;13748;52.240;6.002;2022-11-13T09:07:09;69.40;;;43.10;;
25950;SDS011;13748;52.240;6.002;2022-11-13T09:09:36;69.40;;;43.67;;
25950;SDS011;13748;52.240;6.002;2022-11-13T09:12:03;65.30;;;42.13;;
25950;SDS011;13748;52.240;6.002;2022-11-13T09:14:30;67.67;;;42.17;;
25950;SDS011;13748;52.240;6.002;2022-11-13T09:16:57;79.77;;;48.73;;
25950;SDS011;13748;52.240;6.002;2022-11-13T09:19:24;73.93;;;48.43;;
25950;SDS011;13748;52.240;6.002;2022-11-13T09:21:54;77.23;;;48.90;;
25950;SDS011;13748;52.240;6.002;2022-11-13T09:24:21;73.07;;;47.13;;
25950;SDS011;13748;52.240;6.002;2022-11-13T09:26:48;73.43;;;46.13;;
25950;SDS011;13748;52.240;6.002;2022-11-13T09:29:14;73.30;;;46.80;;
25950;SDS011;13748;52.240;6.002;2022-11-13T09:31:41;72.60;;;46.17;;
25950;SDS011;13748;52.240;6.002;2022-11-13T09:34:08;74.67;;;46.87;;
25950;SDS011;13748;52.240;6.002;2022-11-13T09:36:35;66.60;;;43.70;;
25950;SDS011;13748;52.240;6.002;2022-11-13T09:39:04;66.87;;;45.17;;
25950;SDS011;13748;52.240;6.002;2022-11-13T09:41:54;67.03;;;43.93;;
25950;SDS011;13748;52.240;6.002;2022-11-13T09:44:35;64.10;;;40.77;;
25950;SDS011;13748;52.240;6.002;2022-11-13T09:47:32;57.50;;;39.13;;
25950;SDS011;13748;52.240;6.002;2022-11-13T09:50:23;55.80;;;37.77;;
25950;SDS011;13748;52.240;6.002;2022-11-13T09:52:52;50.30;;;37.07;;
25950;SDS011;13748;52.240;6.002;2022-11-13T09:55:26;54.97;;;35.97;;
25950;SDS011;13748;52.240;6.002;2022-11-13T10:00:43;52.50;;;37.33;;
25950;SDS011;13748;52.240;6.002;2022-11-13T10:03:24;49.57;;;36.50;;
25950;SDS011;13748;52.240;6.002;2022-11-13T10:11:39;46.93;;;34.23;;
25950;SDS011;13748;52.240;6.002;2022-11-13T10:14:18;50.43;;;34.90;;
25950;SDS011;13748;52.240;6.002;2022-11-13T10:17:18;46.23;;;34.20;;
25950;SDS011;13748;52.240;6.002;2022-11-13T10:22:48;45.00;;;31.73;;
25950;SDS011;13748;52.240;6.002;2022-11-13T10:25:33;47.43;;;32.37;;
25950;SDS011;13748;52.240;6.002;2022-11-13T10:28:11;43.17;;;31.77;;
25950;SDS011;13748;52.240;6.002;2022-11-13T10:31:02;37.83;;;28.77;;
25950;SDS011;13748;52.240;6.002;2022-11-13T10:33:29;38.37;;;28.40;;
25950;SDS011;13748;52.240;6.002;2022-11-13T10:39:07;36.03;;;27.73;;
25950;SDS011;13748;52.240;6.002;2022-11-13T10:41:45;36.43;;;27.73;;
25950;SDS011;13748;52.240;6.002;2022-11-13T10:46:50;34.83;;;25.67;;
25950;SDS011;13748;52.240;6.002;2022-11-13T10:49:18;33.73;;;24.10;;
25950;SDS011;13748;52.240;6.002;2022-11-13T10:51:56;34.17;;;26.30;;
25950;SDS011;13748;52.240;6.002;2022-11-13T10:54:25;33.67;;;24.57;;
25950;SDS011;13748;52.240;6.002;2022-11-13T10:57:01;34.17;;;24.80;;
25950;SDS011;13748;52.240;6.002;2022-11-13T10:59:40;30.87;;;23.10;;
25950;SDS011;13748;52.240;6.002;2022-11-13T11:02:17;31.70;;;22.90;;
25950;SDS011;13748;52.240;6.002;2022-11-13T11:04:48;29.47;;;22.57;;
25950;SDS011;13748;52.240;6.002;2022-11-13T11:07:16;26.67;;;22.17;;
25950;SDS011;13748;52.240;6.002;2022-11-13T11:09:48;27.83;;;21.90;;
25950;SDS011;13748;52.240;6.002;2022-11-13T11:12:17;28.00;;;22.37;;
25950;SDS011;13748;52.240;6.002;2022-11-13T11:17:28;29.37;;;23.00;;
25950;SDS011;13748;52.240;6.002;2022-11-13T11:26:27;25.50;;;20.33;;
25950;SDS011;13748;52.240;6.002;2022-11-13T11:29:13;27.73;;;21.20;;
25950;SDS011;13748;52.240;6.002;2022-11-13T11:32:10;25.67;;;21.53;;
25950;SDS011;13748;52.240;6.002;2022-11-13T11:34:59;26.47;;;19.90;;
25950;SDS011;13748;52.240;6.002;2022-11-13T11:37:34;21.70;;;18.17;;
25950;SDS011;13748;52.240;6.002;2022-11-13T11:40:21;22.67;;;18.53;;
25950;SDS011;13748;52.240;6.002;2022-11-13T11:42:56;23.17;;;19.53;;
25950;SDS011;13748;52.240;6.002;2022-11-13T11:45:35;23.00;;;18.80;;
25950;SDS011;13748;52.240;6.002;2022-11-13T11:48:11;25.57;;;18.47;;
25950;SDS011;13748;52.240;6.002;2022-11-13T11:50:47;25.13;;;19.17;;
25950;SDS011;13748;52.240;6.002;2022-11-13T12:04:51;19.53;;;17.07;;
25950;SDS011;13748;52.240;6.002;2022-11-13T12:15:58;24.20;;;18.03;;
25950;SDS011;13748;52.240;6.002;2022-11-13T12:21:20;18.13;;;15.70;;
25950;SDS011;13748;52.240;6.002;2022-11-13T12:26:50;21.30;;;17.80;;
25950;SDS011;13748;52.240;6.002;2022-11-13T12:34:49;20.43;;;16.50;;
25950;SDS011;13748;52.240;6.002;2022-11-13T12:37:25;19.60;;;16.87;;
25950;SDS011;13748;52.240;6.002;2022-11-13T12:40:03;18.90;;;15.67;;
25950;SDS011;13748;52.240;6.002;2022-11-13T12:42:34;20.17;;;15.97;;
25950;SDS011;13748;52.240;6.002;2022-11-13T12:45:15;19.00;;;15.73;;
25950;SDS011;13748;52.240;6.002;2022-11-13T12:47:50;16.90;;;14.80;;
25950;SDS011;13748;52.240;6.002;2022-11-13T12:50:24;19.67;;;15.50;;
25950;SDS011;13748;52.240;6.002;2022-11-13T12:53:02;18.83;;;14.90;;
25950;SDS011;13748;52.240;6.002;2022-11-13T12:55:33;17.23;;;13.43;;
25950;SDS011;13748;52.240;6.002;2022-11-13T12:58:19;16.53;;;14.03;;
25950;SDS011;13748;52.240;6.002;2022-11-13T13:01:31;14.57;;;12.83;;
25950;SDS011;13748;52.240;6.002;2022-11-13T13:09:26;17.50;;;13.40;;
25950;SDS011;13748;52.240;6.002;2022-11-13T13:15:15;16.87;;;13.43;;
25950;SDS011;13748;52.240;6.002;2022-11-13T13:17:33;18.60;;;14.03;;
25950;SDS011;13748;52.240;6.002;2022-11-13T13:20:05;16.00;;;13.57;;
25950;SDS011;13748;52.240;6.002;2022-11-13T13:22:56;18.80;;;14.47;;
25950;SDS011;13748;52.240;6.002;2022-11-13T13:25:26;17.33;;;14.50;;
25950;SDS011;13748;52.240;6.002;2022-11-13T13:36:19;20.03;;;15.60;;
25950;SDS011;13748;52.240;6.002;2022-11-13T13:42:17;18.50;;;15.03;;
25950;SDS011;13748;52.240;6.002;2022-11-13T13:45:10;20.47;;;15.93;;
25950;SDS011;13748;52.240;6.002;2022-11-13T13:47:51;20.50;;;16.10;;
25950;SDS011;13748;52.240;6.002;2022-11-13T13:50:25;17.70;;;14.73;;
25950;SDS011;13748;52.240;6.002;2022-11-13T13:52:55;18.33;;;14.63;;
25950;SDS011;13748;52.240;6.002;2022-11-13T13:55:29;17.93;;;14.87;;
25950;SDS011;13748;52.240;6.002;2022-11-13T13:57:59;16.73;;;14.20;;
25950;SDS011;13748;52.240;6.002;2022-11-13T14:00:31;18.90;;;15.33;;
25950;SDS011;13748;52.240;6.002;2022-11-13T14:02:58;17.47;;;14.17;;
25950;SDS011;13748;52.240;6.002;2022-11-13T14:05:29;17.03;;;13.83;;
25950;SDS011;13748;52.240;6.002;2022-11-13T14:07:58;16.30;;;13.53;;
25950;SDS011;13748;52.240;6.002;2022-11-13T14:10:28;18.30;;;14.10;;
25950;SDS011;13748;52.240;6.002;2022-11-13T14:12:55;16.00;;;12.87;;
25950;SDS011;13748;52.240;6.002;2022-11-13T14:15:24;19.10;;;12.77;;
25950;SDS011;13748;52.240;6.002;2022-11-13T14:18:03;15.63;;;13.07;;
25950;SDS011;13748;52.240;6.002;2022-11-13T14:20:50;16.67;;;13.13;;
25950;SDS011;13748;52.240;6.002;2022-11-13T14:23:33;18.27;;;14.03;;
25950;SDS011;13748;52.240;6.002;2022-11-13T14:26:03;15.60;;;12.97;;
25950;SDS011;13748;52.240;6.002;2022-11-13T14:28:40;17.97;;;14.33;;
25950;SDS011;13748;52.240;6.002;2022-11-13T14:31:18;17.87;;;14.10;;
25950;SDS011;13748;52.240;6.002;2022-11-13T14:33:50;18.93;;;14.87;;
25950;SDS011;13748;52.240;6.002;2022-11-13T14:36:23;18.13;;;14.10;;
25950;SDS011;13748;52.240;6.002;2022-11-13T14:38:54;19.83;;;15.10;;
25950;SDS011;13748;52.240;6.002;2022-11-13T14:41:34;18.03;;;14.60;;
25950;SDS011;13748;52.240;6.002;2022-11-13T14:44:05;18.30;;;15.60;;
25950;SDS011;13748;52.240;6.002;2022-11-13T14:49:03;18.13;;;15.23;;
25950;SDS011;13748;52.240;6.002;2022-11-13T14:51:37;17.87;;;15.73;;
25950;SDS011;13748;52.240;6.002;2022-11-13T14:54:25;19.40;;;16.10;;
25950;SDS011;13748;52.240;6.002;2022-11-13T14:57:23;19.00;;;15.53;;
25950;SDS011;13748;52.240;6.002;2022-11-13T14:59:50;19.10;;;14.90;;
25950;SDS011;13748;52.240;6.002;2022-11-13T15:02:20;20.73;;;15.87;;
25950;SDS011;13748;52.240;6.002;2022-11-13T15:04:47;20.03;;;16.40;;
25950;SDS011;13748;52.240;6.002;2022-11-13T15:07:23;19.60;;;15.60;;
25950;SDS011;13748;52.240;6.002;2022-11-13T15:09:56;20.47;;;15.63;;
25950;SDS011;13748;52.240;6.002;2022-11-13T15:12:24;19.50;;;16.17;;
25950;SDS011;13748;52.240;6.002;2022-11-13T15:14:50;19.30;;;15.87;;
25950;SDS011;13748;52.240;6.002;2022-11-13T15:17:18;19.67;;;15.13;;
25950;SDS011;13748;52.240;6.002;2022-11-13T15:19:47;18.73;;;15.57;;
25950;SDS011;13748;52.240;6.002;2022-11-13T15:22:17;20.80;;;15.90;;
25950;SDS011;13748;52.240;6.002;2022-11-13T15:24:53;19.30;;;14.67;;
25950;SDS011;13748;52.240;6.002;2022-11-13T15:27:20;20.43;;;16.27;;
25950;SDS011;13748;52.240;6.002;2022-11-13T15:29:46;19.30;;;15.43;;
25950;SDS011;13748;52.240;6.002;2022-11-13T15:32:13;21.37;;;16.27;;
25950;SDS011;13748;52.240;6.002;2022-11-13T15:34:41;17.93;;;14.93;;
25950;SDS011;13748;52.240;6.002;2022-11-13T15:37:11;20.30;;;15.87;;
25950;SDS011;13748;52.240;6.002;2022-11-13T15:39:39;21.90;;;15.70;;
25950;SDS011;13748;52.240;6.002;2022-11-13T15:42:09;17.93;;;15.03;;
25950;SDS011;13748;52.240;6.002;2022-11-13T15:44:39;19.53;;;15.30;;
25950;SDS011;13748;52.240;6.002;2022-11-13T15:47:25;18.73;;;14.43;;
25950;SDS011;13748;52.240;6.002;2022-11-13T15:49:56;20.83;;;15.43;;
25950;SDS011;13748;52.240;6.002;2022-11-13T15:52:42;21.03;;;14.97;;
25950;SDS011;13748;52.240;6.002;2022-11-13T15:55:24;21.73;;;16.40;;
25950;SDS011;13748;52.240;6.002;2022-11-13T15:57:53;21.23;;;14.80;;
25950;SDS011;13748;52.240;6.002;2022-11-13T16:00:22;22.30;;;16.30;;
25950;SDS011;13748;52.240;6.002;2022-11-13T16:02:53;24.33;;;15.73;;
25950;SDS011;13748;52.240;6.002;2022-11-13T16:05:26;25.57;;;16.80;;
25950;SDS011;13748;52.240;6.002;2022-11-13T16:07:55;22.90;;;16.90;;